createdAt,value
2022-09-22T00:01:18.321Z,17.40
2022-09-22T00:03:50.449Z,17.50
2022-09-22T00:06:28.557Z,17.50
2022-09-22T00:08:58.602Z,17.40
2022-09-22T00:11:28.877Z,17.40
2022-09-22T00:14:05.270Z,17.50
2022-09-22T00:16:42.238Z,17.40
2022-09-22T00:19:10.789Z,17.40
2022-09-22T00:21:37.333Z,17.40
2022-09-22T00:24:07.820Z,17.40
2022-09-22T00:26:35.608Z,17.40
2022-09-22T00:29:02.638Z,17.40
2022-09-22T00:31:30.108Z,17.40
2022-09-22T00:33:57.225Z,17.40
2022-09-22T00:36:26.863Z,17.40
2022-09-22T00:38:56.263Z,17.40
2022-09-22T00:41:40.501Z,17.40
2022-09-22T00:44:28.936Z,17.40
2022-09-22T00:46:58.566Z,17.40
2022-09-22T00:49:49.130Z,17.40
2022-09-22T00:52:21.961Z,17.40
2022-09-22T00:54:49.602Z,17.40
2022-09-22T00:57:20.489Z,17.40
2022-09-22T00:59:49.230Z,17.40
2022-09-22T01:02:16.016Z,17.40
2022-09-22T01:04:42.910Z,17.40
2022-09-22T01:07:11.056Z,17.40
2022-09-22T01:09:38.139Z,17.40
2022-09-22T01:12:05.249Z,17.40
2022-09-22T01:14:56.600Z,17.30
2022-09-22T01:20:16.049Z,17.30
2022-09-22T01:23:19.706Z,17.30
2022-09-22T01:26:17.588Z,17.40
2022-09-22T01:28:57.314Z,17.40
2022-09-22T01:32:05.831Z,17.30
2022-09-22T01:34:47.612Z,17.30
2022-09-22T01:37:29.164Z,17.30
2022-09-22T01:40:02.811Z,17.30
2022-09-22T01:42:32.897Z,17.30
2022-09-22T01:45:06.863Z,17.30
2022-09-22T01:47:41.612Z,17.30
2022-09-22T01:50:19.135Z,17.30
2022-09-22T01:52:46.572Z,17.30
2022-09-22T01:55:22.849Z,17.30
2022-09-22T01:57:56.351Z,17.30
2022-09-22T02:00:23.290Z,17.30
2022-09-22T02:02:54.266Z,17.30
2022-09-22T02:05:39.430Z,17.30
2022-09-22T02:08:13.069Z,17.30
2022-09-22T02:10:44.231Z,17.30
2022-09-22T02:13:10.877Z,17.30
2022-09-22T02:15:56.285Z,17.30
2022-09-22T02:18:46.937Z,17.30
2022-09-22T02:21:14.938Z,17.30
2022-09-22T02:23:42.503Z,17.30
2022-09-22T02:26:09.636Z,17.30
2022-09-22T02:28:38.916Z,17.30
2022-09-22T02:31:24.841Z,17.30
2022-09-22T02:33:52.008Z,17.30
2022-09-22T02:36:37.510Z,17.30
2022-09-22T02:39:28.609Z,17.30
2022-09-22T02:42:17.864Z,17.30
2022-09-22T02:45:22.259Z,17.30
2022-09-22T02:47:53.856Z,17.30
2022-09-22T02:50:24.106Z,17.30
2022-09-22T02:53:04.866Z,17.30
2022-09-22T02:55:31.804Z,17.30
2022-09-22T02:57:58.371Z,17.30
2022-09-22T03:00:24.919Z,17.30
2022-09-22T03:02:51.439Z,17.30
2022-09-22T03:05:17.965Z,17.20
2022-09-22T03:07:44.531Z,17.30
2022-09-22T03:10:11.235Z,17.30
2022-09-22T03:13:02.402Z,17.30
2022-09-22T03:15:28.992Z,17.30
2022-09-22T03:17:55.573Z,17.30
2022-09-22T03:20:22.367Z,17.30
2022-09-22T03:22:48.879Z,17.20
2022-09-22T03:25:15.521Z,17.30
2022-09-22T03:27:42.062Z,17.20
2022-09-22T03:30:09.444Z,17.30
2022-09-22T03:32:36.590Z,17.30
2022-09-22T03:35:03.482Z,17.30
2022-09-22T03:37:30.016Z,17.30
2022-09-22T03:39:56.554Z,17.30
2022-09-22T03:42:23.061Z,17.30
2022-09-22T03:44:49.565Z,17.30
2022-09-22T03:47:16.194Z,17.20
2022-09-22T03:49:42.999Z,17.20
2022-09-22T03:52:09.934Z,17.30
2022-09-22T03:54:37.058Z,17.30
2022-09-22T03:57:04.411Z,17.20
2022-09-22T03:59:31.155Z,17.20
2022-09-22T04:01:58.492Z,17.20
2022-09-22T04:04:25.336Z,17.20
2022-09-22T04:06:51.977Z,17.20
2022-09-22T04:09:18.816Z,17.30
2022-09-22T04:11:45.352Z,17.20
2022-09-22T04:14:12.261Z,17.20
2022-09-22T04:16:42.237Z,17.20
2022-09-22T04:19:09.883Z,17.20
2022-09-22T04:21:36.481Z,17.20
2022-09-22T04:24:03.193Z,17.20
2022-09-22T04:26:29.756Z,17.20
2022-09-22T04:28:56.286Z,17.20
2022-09-22T04:31:23.007Z,17.20
2022-09-22T04:33:49.646Z,17.20
2022-09-22T04:38:43.164Z,16.90
2022-09-22T04:41:09.838Z,17.00
2022-09-22T04:43:36.413Z,17.10
2022-09-22T04:46:02.963Z,17.10
2022-09-22T04:48:29.545Z,17.20
2022-09-22T04:50:56.603Z,17.20
2022-09-22T04:53:23.239Z,17.20
2022-09-22T04:55:50.587Z,17.20
2022-09-22T04:58:17.207Z,17.30
2022-09-22T05:03:12.774Z,17.30
2022-09-22T05:05:39.347Z,17.30
2022-09-22T05:08:05.885Z,17.30
2022-09-22T05:10:34.249Z,17.30
2022-09-22T05:13:00.775Z,17.30
2022-09-22T05:15:27.363Z,17.30
2022-09-22T05:17:55.203Z,17.30
2022-09-22T05:20:22.056Z,17.30
2022-09-22T05:22:49.605Z,17.30
2022-09-22T05:25:18.383Z,17.30
2022-09-22T05:27:50.630Z,15.30
2022-09-22T05:30:18.462Z,13.20
2022-09-22T05:32:46.256Z,12.10
2022-09-22T05:35:14.712Z,12.80
2022-09-22T05:37:44.024Z,13.90
2022-09-22T05:40:11.591Z,14.90
2022-09-22T05:42:44.064Z,15.50
2022-09-22T05:45:11.009Z,15.90
2022-09-22T05:47:38.585Z,16.10
2022-09-22T05:50:05.712Z,14.10
2022-09-22T05:52:32.248Z,14.10
2022-09-22T05:54:59.078Z,14.80
2022-09-22T05:59:54.832Z,15.80
2022-09-22T06:02:26.140Z,16.10
2022-09-22T06:04:53.543Z,16.30
2022-09-22T06:07:21.054Z,16.40
2022-09-22T06:09:48.319Z,16.50
2022-09-22T06:12:15.228Z,16.60
2022-09-22T06:14:41.844Z,16.70
2022-09-22T06:17:11.727Z,16.80
2022-09-22T06:19:39.454Z,16.80
2022-09-22T06:24:33.215Z,16.80
2022-09-22T06:26:59.835Z,16.80
2022-09-22T06:29:26.709Z,16.80
2022-09-22T06:36:50.411Z,16.90
2022-09-22T06:39:16.946Z,16.90
2022-09-22T06:41:44.726Z,16.90
2022-09-22T06:44:12.544Z,17.00
2022-09-22T06:46:39.208Z,17.00
2022-09-22T06:49:05.713Z,17.00
2022-09-22T06:51:35.125Z,16.90
2022-09-22T06:54:04.007Z,17.00
2022-09-22T06:56:37.903Z,17.00
2022-09-22T06:59:10.919Z,17.00
2022-09-22T07:04:05.197Z,17.00
2022-09-22T07:06:31.986Z,17.00
2022-09-22T07:08:58.675Z,17.00
2022-09-22T07:11:25.265Z,17.00
2022-09-22T07:13:53.692Z,17.00
2022-09-22T07:16:24.039Z,17.00
2022-09-22T07:18:55.957Z,17.00
2022-09-22T07:21:24.628Z,17.00
2022-09-22T07:23:53.729Z,17.10
2022-09-22T07:26:26.272Z,17.10
2022-09-22T07:28:54.189Z,17.10
2022-09-22T07:31:26.307Z,17.10
2022-09-22T07:33:55.888Z,17.10
2022-09-22T07:36:25.936Z,17.10
2022-09-22T07:38:54.527Z,17.10
2022-09-22T07:41:29.382Z,17.10
2022-09-22T07:44:18.109Z,17.10
2022-09-22T07:46:45.602Z,17.20
2022-09-22T07:49:12.319Z,17.20
2022-09-22T07:51:38.870Z,17.30
2022-09-22T07:54:08.444Z,17.00
2022-09-22T07:56:40.334Z,16.30
2022-09-22T07:59:09.785Z,16.00
2022-09-22T08:01:44.831Z,15.80
2022-09-22T08:04:15.480Z,15.70
2022-09-22T08:06:43.352Z,15.70
2022-09-22T08:09:11.236Z,15.80
2022-09-22T08:11:38.497Z,15.90
2022-09-22T08:14:07.885Z,16.00
2022-09-22T08:16:37.034Z,16.00
2022-09-22T08:19:10.502Z,16.20
2022-09-22T08:21:47.735Z,16.40
2022-09-22T08:24:17.411Z,16.40
2022-09-22T08:26:48.079Z,16.30
2022-09-22T08:29:14.940Z,16.40
2022-09-22T08:31:42.248Z,16.50
2022-09-22T08:34:09.512Z,16.60
2022-09-22T08:36:37.571Z,16.70
2022-09-22T08:39:06.100Z,16.60
2022-09-22T08:41:48.780Z,16.90
2022-09-22T08:44:49.188Z,17.00
2022-09-22T08:47:39.905Z,17.10
2022-09-22T08:51:03.749Z,17.30
2022-09-22T08:53:34.011Z,17.40
2022-09-22T08:56:29.094Z,17.50
2022-09-22T08:59:09.341Z,17.50
2022-09-22T09:01:54.487Z,17.50
2022-09-22T09:04:33.192Z,17.50
2022-09-22T09:07:23.201Z,17.50
2022-09-22T09:10:00.766Z,17.50
2022-09-22T09:12:52.941Z,17.60
2022-09-22T09:15:38.057Z,17.60
2022-09-22T09:18:15.823Z,17.70
2022-09-22T09:20:48.576Z,17.70
2022-09-22T09:26:18.689Z,17.90
2022-09-22T09:28:55.042Z,17.90
2022-09-22T09:31:36.431Z,17.90
2022-09-22T09:34:07.558Z,18.00
2022-09-22T09:36:41.665Z,18.10
2022-09-22T09:39:20.646Z,18.10
2022-09-22T09:41:49.010Z,18.20
2022-09-22T09:44:27.292Z,18.10
2022-09-22T09:47:01.895Z,18.20
2022-09-22T09:49:28.696Z,18.20
2022-09-22T09:52:00.031Z,18.20
2022-09-22T09:54:27.657Z,18.20
2022-09-22T09:57:32.495Z,18.30
2022-09-22T10:00:31.713Z,18.30
2022-09-22T10:03:29.867Z,18.40
2022-09-22T10:06:06.095Z,18.40
2022-09-22T10:08:42.157Z,18.40
2022-09-22T10:11:10.256Z,18.40
2022-09-22T10:13:39.005Z,18.40
2022-09-22T10:16:19.719Z,18.40
2022-09-22T10:18:47.369Z,18.40
2022-09-22T10:21:15.635Z,18.40
2022-09-22T10:23:44.717Z,18.50
2022-09-22T10:26:29.176Z,18.60
2022-09-22T10:29:13.779Z,18.60
2022-09-22T10:31:41.566Z,18.60
2022-09-22T10:34:39.128Z,18.60
2022-09-22T10:37:11.493Z,18.60
2022-09-22T10:39:43.340Z,18.60
2022-09-22T10:42:30.095Z,18.60
2022-09-22T10:45:02.443Z,18.60
2022-09-22T10:47:58.885Z,18.70
2022-09-22T10:50:41.328Z,18.70
2022-09-22T10:53:31.308Z,18.70
2022-09-22T10:56:16.362Z,18.80
2022-09-22T10:59:18.388Z,18.80
2022-09-22T11:02:18.181Z,18.80
2022-09-22T11:05:39.622Z,18.80
2022-09-22T11:08:29.358Z,18.80
2022-09-22T11:11:35.937Z,18.70
2022-09-22T11:14:19.078Z,18.60
2022-09-22T11:17:08.582Z,18.60
2022-09-22T11:19:59.964Z,18.60
2022-09-22T11:22:34.784Z,18.70
2022-09-22T11:25:39.237Z,18.70
2022-09-22T11:28:28.247Z,18.60
2022-09-22T11:30:57.522Z,18.50
2022-09-22T11:33:47.231Z,18.40
2022-09-22T11:36:30.948Z,18.30
2022-09-22T11:39:18.371Z,18.30
2022-09-22T11:42:18.019Z,18.20
2022-09-22T11:45:02.340Z,18.20
2022-09-22T11:47:55.058Z,18.20
2022-09-22T11:50:39.466Z,18.40
2022-09-22T11:53:38.592Z,18.50
2022-09-22T11:56:13.985Z,18.60
2022-09-22T11:58:43.513Z,18.60
2022-09-22T12:01:17.770Z,18.60
2022-09-22T12:03:48.799Z,18.70
2022-09-22T12:06:18.980Z,18.70
2022-09-22T12:09:00.265Z,18.60
2022-09-22T12:11:28.214Z,18.60
2022-09-22T12:13:57.140Z,18.60
2022-09-22T12:16:49.706Z,18.50
2022-09-22T12:19:31.276Z,18.50
2022-09-22T12:22:07.482Z,18.50
2022-09-22T12:24:34.720Z,18.60
2022-09-22T12:27:11.643Z,18.50
2022-09-22T12:29:38.850Z,18.50
2022-09-22T12:32:05.978Z,18.40
2022-09-22T12:34:39.151Z,18.40
2022-09-22T12:37:15.704Z,18.40
2022-09-22T12:39:44.512Z,18.40
2022-09-22T12:42:25.731Z,18.40
2022-09-22T12:44:56.412Z,18.40
2022-09-22T12:47:35.610Z,18.40
2022-09-22T12:50:27.338Z,18.40
2022-09-22T12:52:54.271Z,18.40
2022-09-22T12:55:38.256Z,18.40
2022-09-22T12:58:26.025Z,18.40
2022-09-22T13:00:55.370Z,18.40
2022-09-22T13:03:25.070Z,18.30
2022-09-22T13:05:59.597Z,18.40
2022-09-22T13:08:48.738Z,18.30
2022-09-22T13:11:15.535Z,18.40
2022-09-22T13:13:50.528Z,18.50
2022-09-22T13:16:17.139Z,18.50
2022-09-22T13:18:58.775Z,18.40
2022-09-22T13:21:30.802Z,18.40
2022-09-22T13:24:00.141Z,18.40
2022-09-22T13:26:31.465Z,18.40
2022-09-22T13:29:03.110Z,18.40
2022-09-22T13:31:37.452Z,18.50
2022-09-22T13:34:19.945Z,18.40
2022-09-22T13:36:47.399Z,18.40
2022-09-22T13:39:16.724Z,18.40
2022-09-22T13:41:48.638Z,18.50
2022-09-22T13:44:20.904Z,18.50
2022-09-22T13:46:50.246Z,18.40
2022-09-22T13:49:27.114Z,18.40
2022-09-22T13:51:58.381Z,18.40
2022-09-22T13:54:28.345Z,18.30
2022-09-22T13:56:57.365Z,18.30
2022-09-22T13:59:27.216Z,18.20
2022-09-22T14:01:53.861Z,18.20
2022-09-22T14:04:26.424Z,18.20
2022-09-22T14:07:00.733Z,18.10
2022-09-22T14:09:27.612Z,18.10
2022-09-22T14:11:56.336Z,18.10
2022-09-22T14:14:25.100Z,18.20
2022-09-22T14:16:59.631Z,18.10
2022-09-22T14:19:37.624Z,18.10
2022-09-22T14:22:20.320Z,18.10
2022-09-22T14:24:49.483Z,18.10
2022-09-22T14:27:36.418Z,18.10
2022-09-22T14:30:04.407Z,18.10
2022-09-22T14:32:44.358Z,18.10
2022-09-22T14:35:31.696Z,18.10
2022-09-22T14:38:08.775Z,18.10
2022-09-22T14:40:51.346Z,18.00
2022-09-22T14:43:40.972Z,18.10
2022-09-22T14:46:33.438Z,18.10
2022-09-22T14:49:23.458Z,18.10
2022-09-22T14:51:50.097Z,18.00
2022-09-22T14:54:17.121Z,18.00
2022-09-22T14:56:44.231Z,18.00
2022-09-22T14:59:36.283Z,18.00
2022-09-22T15:02:22.797Z,18.00
2022-09-22T15:04:51.988Z,18.00
2022-09-22T15:07:44.434Z,18.00
2022-09-22T15:10:27.826Z,17.90
2022-09-22T15:12:56.933Z,18.00
2022-09-22T15:15:29.028Z,17.90
2022-09-22T15:18:19.367Z,17.90
2022-09-22T15:21:02.664Z,17.90
2022-09-22T15:23:33.993Z,17.90
2022-09-22T15:26:04.827Z,17.90
2022-09-22T15:28:37.797Z,17.90
2022-09-22T15:31:05.236Z,17.80
2022-09-22T15:33:31.876Z,17.90
2022-09-22T15:36:04.458Z,17.90
2022-09-22T15:38:32.831Z,17.90
2022-09-22T15:40:59.535Z,17.90
2022-09-22T15:43:31.022Z,17.90
2022-09-22T15:46:06.102Z,17.90
2022-09-22T15:48:36.869Z,17.90
2022-09-22T15:51:10.963Z,17.90
2022-09-22T15:53:38.431Z,17.90
2022-09-22T15:56:11.081Z,17.90
2022-09-22T15:58:40.746Z,17.90
2022-09-22T16:01:07.997Z,17.90
2022-09-22T16:03:41.054Z,17.90
2022-09-22T16:06:12.768Z,17.90
2022-09-22T16:08:45.988Z,17.90
2022-09-22T16:11:15.186Z,17.90
2022-09-22T16:13:41.923Z,17.90
2022-09-22T16:16:10.240Z,17.90
2022-09-22T16:18:39.287Z,17.90
2022-09-22T16:21:25.947Z,17.90
2022-09-22T16:23:54.634Z,18.00
2022-09-22T16:26:22.741Z,18.00
2022-09-22T16:28:49.534Z,18.00
2022-09-22T16:31:16.898Z,18.00
2022-09-22T16:33:43.849Z,18.00
2022-09-22T16:36:10.386Z,18.00
2022-09-22T16:38:39.288Z,18.10
2022-09-22T16:41:16.858Z,18.10
2022-09-22T16:43:43.411Z,18.20
2022-09-22T16:46:29.577Z,18.20
2022-09-22T16:49:17.145Z,18.20
2022-09-22T16:51:48.667Z,18.20
2022-09-22T16:54:15.943Z,18.20
2022-09-22T16:56:45.892Z,18.20
2022-09-22T16:59:15.748Z,18.10
2022-09-22T17:01:43.533Z,18.10
2022-09-22T17:04:12.054Z,18.10
2022-09-22T17:06:40.527Z,18.10
2022-09-22T17:09:08.032Z,18.10
2022-09-22T17:11:37.437Z,18.10
2022-09-22T17:14:12.223Z,18.10
2022-09-22T17:16:44.837Z,18.10
2022-09-22T17:19:17.016Z,18.10
2022-09-22T17:21:45.712Z,18.00
2022-09-22T17:24:13.278Z,18.10
2022-09-22T17:26:47.250Z,18.00
2022-09-22T17:29:24.689Z,18.10
2022-09-22T17:32:09.544Z,18.10
2022-09-22T17:34:37.609Z,18.10
2022-09-22T17:37:04.860Z,18.00
2022-09-22T17:39:32.046Z,18.00
2022-09-22T17:49:59.670Z,18.10
2022-09-22T17:52:29.235Z,18.10
2022-09-22T17:55:09.380Z,18.10
2022-09-22T17:57:37.332Z,18.00
2022-09-22T18:00:15.229Z,18.00
2022-09-22T18:02:41.837Z,18.00
2022-09-22T18:05:14.441Z,18.00
2022-09-22T18:07:41.494Z,18.00
2022-09-22T18:10:10.404Z,18.00
2022-09-22T18:12:41.107Z,18.00
2022-09-22T18:15:12.582Z,18.00
2022-09-22T18:17:43.435Z,18.00
2022-09-22T18:20:16.188Z,18.00
2022-09-22T18:22:47.565Z,18.00
2022-09-22T18:27:42.189Z,18.00
2022-09-22T18:30:13.169Z,18.00
2022-09-22T18:32:42.413Z,18.00
2022-09-22T18:37:36.052Z,18.00
2022-09-22T18:42:31.099Z,18.00
2022-09-22T18:47:25.170Z,18.00
2022-09-22T18:49:51.818Z,18.00
2022-09-22T18:52:24.197Z,18.00
2022-09-22T18:54:53.640Z,18.00
2022-09-22T18:57:22.568Z,17.90
2022-09-22T18:59:50.769Z,18.00
2022-09-22T19:04:48.477Z,18.00
2022-09-22T19:07:36.544Z,17.90
2022-09-22T19:10:07.011Z,18.00
2022-09-22T19:12:35.746Z,17.90
2022-09-22T19:15:02.615Z,17.90
2022-09-22T19:17:29.474Z,17.90
2022-09-22T19:19:56.474Z,18.00
2022-09-22T19:22:23.137Z,17.90
2022-09-22T19:24:50.702Z,17.90
2022-09-22T19:27:19.097Z,17.90
2022-09-22T19:29:45.644Z,17.90
2022-09-22T19:32:12.384Z,17.90
2022-09-22T19:34:39.049Z,17.90
2022-09-22T19:37:06.818Z,17.90
2022-09-22T19:39:33.496Z,17.90
2022-09-22T19:44:29.490Z,17.90
2022-09-22T19:51:55.097Z,17.90
2022-09-22T19:54:21.703Z,17.90
2022-09-22T19:56:49.013Z,17.90
2022-09-22T19:59:19.521Z,17.90
2022-09-22T20:01:47.809Z,17.90
2022-09-22T20:04:20.068Z,17.90
2022-09-22T20:06:48.649Z,17.90
2022-09-22T20:09:16.163Z,17.90
2022-09-22T20:11:45.755Z,17.90
2022-09-22T20:14:22.742Z,17.90
2022-09-22T20:16:54.716Z,17.90
2022-09-22T20:19:23.167Z,17.90
2022-09-22T20:21:54.957Z,17.90
2022-09-22T20:24:22.987Z,17.90
2022-09-22T20:26:49.796Z,17.90
2022-09-22T20:31:43.855Z,17.90
2022-09-22T20:34:14.984Z,17.90
2022-09-22T20:39:15.147Z,17.90
2022-09-22T20:41:42.724Z,17.90
2022-09-22T20:44:14.456Z,18.00
2022-09-22T20:46:42.611Z,17.90
2022-09-22T20:49:12.763Z,17.90
2022-09-22T20:51:39.585Z,17.90
2022-09-22T20:54:07.232Z,17.90
2022-09-22T20:56:33.991Z,17.90
2022-09-22T20:59:01.909Z,17.90
2022-09-22T21:01:28.509Z,18.00
2022-09-22T21:03:55.765Z,17.90
2022-09-22T21:06:23.935Z,18.00
2022-09-22T21:09:09.495Z,17.90
2022-09-22T21:14:05.615Z,18.00
2022-09-22T21:16:34.392Z,17.90
2022-09-22T21:21:33.060Z,17.90
2022-09-22T21:26:30.477Z,17.90
2022-09-22T21:28:59.291Z,17.90
2022-09-22T21:33:53.339Z,17.90
2022-09-22T21:36:22.513Z,17.90
2022-09-22T21:38:59.809Z,17.90
2022-09-22T21:41:28.830Z,17.90
2022-09-22T21:43:55.841Z,17.90
2022-09-22T21:46:29.412Z,17.90
2022-09-22T21:49:01.501Z,17.90
2022-09-22T21:51:34.260Z,17.90
2022-09-22T21:54:02.955Z,17.90
2022-09-22T21:58:57.564Z,17.90
2022-09-22T22:01:33.077Z,17.90
2022-09-22T22:04:01.008Z,17.90
2022-09-22T22:06:29.405Z,17.90
2022-09-22T22:09:02.258Z,17.90
2022-09-22T22:11:34.750Z,17.90
2022-09-22T22:14:04.654Z,17.90
2022-09-22T22:16:37.810Z,17.90
2022-09-22T22:19:06.343Z,17.90
2022-09-22T22:21:33.005Z,17.90
2022-09-22T22:24:20.698Z,17.80
2022-09-22T22:26:53.069Z,17.90
2022-09-22T22:29:20.906Z,17.90
2022-09-22T22:31:51.786Z,17.80
2022-09-22T22:34:22.141Z,17.80
2022-09-22T22:36:49.242Z,17.80
2022-09-22T22:39:16.262Z,17.80
2022-09-22T22:41:42.785Z,17.80
2022-09-22T22:44:09.315Z,17.80
2022-09-22T22:46:36.149Z,17.80
2022-09-22T22:49:03.227Z,17.80
2022-09-22T22:51:29.896Z,17.80
2022-09-22T22:53:56.615Z,17.80
2022-09-22T22:56:25.949Z,17.80
2022-09-22T22:58:55.635Z,17.80
2022-09-22T23:01:30.738Z,17.80
2022-09-22T23:04:00.144Z,17.80
2022-09-22T23:06:29.959Z,17.80
2022-09-22T23:08:56.579Z,17.80
2022-09-22T23:11:32.517Z,17.80
2022-09-22T23:14:03.913Z,17.80
2022-09-22T23:16:35.994Z,17.80
2022-09-22T23:19:07.105Z,17.80
2022-09-22T23:21:34.667Z,17.80
2022-09-22T23:24:01.701Z,17.80
2022-09-22T23:26:29.032Z,17.80
2022-09-22T23:28:58.214Z,17.80
2022-09-22T23:31:25.321Z,17.80
2022-09-22T23:33:52.767Z,17.80
2022-09-22T23:36:22.366Z,17.80
2022-09-22T23:38:53.727Z,17.80
2022-09-22T23:41:20.302Z,17.80
2022-09-22T23:46:13.945Z,17.80
2022-09-22T23:48:40.497Z,17.80
2022-09-22T23:51:07.364Z,17.80
2022-09-22T23:53:35.839Z,17.80
2022-09-22T23:56:03.246Z,17.80
2022-09-22T23:58:30.573Z,17.80
